Time;durP1;ratioP1;P1;durP2;ratioP2;P2;SDS_P1;SDS_P2;PMS_P1;PMS_P2;Temp;Humidity;BMP_temperature;BMP_pressure;BME280_temperature;BME280_humidity;BME280_pressure;Samples;Min_cycle;Max_cycle;Signal;HPM_P1;HPM_P2
2023/04/14 00:01:27;;;;;;;10.95;5.50;;;5.70;99.90;;;;;;5134467;27;20114;-73
2023/04/14 00:03:53;;;;;;;12.13;5.78;;;5.70;99.90;;;;;;5115102;27;20131;-73
2023/04/14 00:06:19;;;;;;;9.18;5.30;;;5.70;99.90;;;;;;5134466;27;20516;-73
2023/04/14 00:08:44;;;;;;;9.68;5.13;;;5.70;99.90;;;;;;5115257;27;20046;-73
2023/04/14 00:11:10;;;;;;;12.27;4.90;;;5.60;99.90;;;;;;5133779;27;20087;-73
2023/04/14 00:13:36;;;;;;;13.43;5.72;;;5.60;99.90;;;;;;5133890;27;20106;-73
2023/04/14 00:16:02;;;;;;;10.30;5.35;;;5.60;99.90;;;;;;5134855;27;20023;-73
2023/04/14 00:18:28;;;;;;;13.45;6.22;;;5.60;99.90;;;;;;5134511;27;20106;-73
2023/04/14 00:20:53;;;;;;;12.25;5.32;;;5.60;99.90;;;;;;5133856;27;20055;-73
2023/04/14 00:23:20;;;;;;;12.82;5.05;;;5.50;99.90;;;;;;5134301;27;20130;-73
2023/04/14 00:25:48;;;;;;;13.43;5.80;;;5.60;99.90;;;;;;5133834;27;20468;-74
2023/04/14 00:28:13;;;;;;;10.18;5.38;;;5.60;99.90;;;;;;5134715;27;20118;-73
2023/04/14 00:30:39;;;;;;;10.35;5.85;;;5.60;99.90;;;;;;5134760;27;20467;-74
2023/04/14 00:33:05;;;;;;;8.82;4.72;;;5.60;99.90;;;;;;5135468;27;20038;-74
2023/04/14 00:35:31;;;;;;;10.48;5.75;;;5.60;99.90;;;;;;5135744;27;20461;-73
2023/04/14 00:37:57;;;;;;;9.90;5.85;;;5.60;99.90;;;;;;5134852;27;20027;-74
2023/04/14 00:40:23;;;;;;;10.68;5.30;;;5.60;99.90;;;;;;5135196;27;20024;-74
2023/04/14 00:42:49;;;;;;;10.68;5.90;;;5.60;99.90;;;;;;5133251;27;20034;-74
2023/04/14 00:45:15;;;;;;;12.20;6.25;;;5.60;99.90;;;;;;5134042;27;20509;-74
2023/04/14 00:47:45;;;;;;;12.98;6.30;;;5.50;99.90;;;;;;5133593;27;20419;-75
2023/04/14 00:50:16;;;;;;;11.80;6.57;;;5.50;99.90;;;;;;5134024;27;20020;-75
2023/04/14 00:52:44;;;;;;;18.42;6.22;;;5.40;99.90;;;;;;5133422;27;20114;-75
2023/04/14 00:55:10;;;;;;;11.57;6.45;;;5.40;99.90;;;;;;5133980;27;20023;-75
2023/04/14 00:57:37;;;;;;;11.15;6.47;;;5.30;99.90;;;;;;5133811;27;20019;-77
2023/04/14 01:00:07;;;;;;;13.13;6.50;;;5.30;99.90;;;;;;5133304;27;20039;-74
2023/04/14 01:02:32;;;;;;;14.18;6.13;;;5.20;99.90;;;;;;5133606;27;20067;-74
2023/04/14 01:04:58;;;;;;;12.90;6.18;;;5.20;99.90;;;;;;5132981;27;20042;-74
2023/04/14 01:07:26;;;;;;;11.88;6.47;;;5.10;99.90;;;;;;5133738;27;20023;-74
2023/04/14 01:09:54;;;;;;;13.18;6.35;;;5.00;99.90;;;;;;5132698;27;20020;-74
2023/04/14 01:12:55;;;;;;;16.38;6.88;;;5.00;99.90;;;;;;5133413;27;20019;-74
2023/04/14 01:15:42;;;;;;;11.70;5.72;;;5.00;99.90;;;;;;5029679;28;20049;-74
2023/04/14 01:18:22;;;;;;;9.35;5.68;;;5.00;99.90;;;;;;5126413;27;20043;-74
2023/04/14 01:20:51;;;;;;;11.98;5.03;;;5.00;99.90;;;;;;5132873;27;20037;-74
2023/04/14 01:23:40;;;;;;;7.65;4.53;;;5.00;99.90;;;;;;5133081;27;20116;-74
2023/04/14 01:26:20;;;;;;;10.02;5.20;;;5.00;99.90;;;;;;5115146;27;20046;-74
2023/04/14 01:29:03;;;;;;;10.68;4.75;;;5.10;99.90;;;;;;5113984;27;20030;-74
2023/04/14 01:31:40;;;;;;;7.78;4.47;;;5.10;99.90;;;;;;5133409;27;20023;-74
2023/04/14 01:34:30;;;;;;;10.32;5.03;;;5.10;99.90;;;;;;5133591;27;20031;-74
2023/04/14 01:37:16;;;;;;;15.57;6.97;;;5.20;99.90;;;;;;5132671;27;20027;-74
2023/04/14 01:39:48;;;;;;;20.05;14.75;;;5.30;99.90;;;;;;5132633;27;20048;-75
2023/04/14 01:42:18;;;;;;;17.83;14.48;;;5.30;99.90;;;;;;5133067;27;20119;-75
2023/04/14 01:44:48;;;;;;;21.45;13.80;;;5.40;99.90;;;;;;5132147;27;20035;-75
2023/04/14 01:47:19;;;;;;;19.25;13.05;;;5.40;99.90;;;;;;5133016;27;20352;-74
2023/04/14 01:49:47;;;;;;;17.73;12.82;;;5.30;99.90;;;;;;5132293;27;20470;-74
2023/04/14 01:52:15;;;;;;;15.40;10.95;;;5.30;99.90;;;;;;5133043;27;20030;-74
2023/04/14 01:54:44;;;;;;;13.35;10.88;;;5.20;99.90;;;;;;5132733;27;20073;-77
2023/04/14 01:57:11;;;;;;;13.07;10.07;;;5.20;99.90;;;;;;5132746;27;20025;-74
2023/04/14 01:59:39;;;;;;;13.55;8.90;;;5.10;99.90;;;;;;5132470;27;20050;-74
2023/04/14 02:02:07;;;;;;;10.13;7.88;;;5.10;99.90;;;;;;5132074;27;20140;-74
2023/04/14 02:04:34;;;;;;;12.48;7.60;;;5.20;99.90;;;;;;5114024;27;20023;-73
2023/04/14 02:07:01;;;;;;;11.13;5.90;;;5.10;99.90;;;;;;5131960;27;20499;-73
2023/04/14 02:09:29;;;;;;;8.85;4.63;;;5.10;99.90;;;;;;5132453;27;20378;-73
2023/04/14 02:11:57;;;;;;;9.32;4.82;;;5.00;99.90;;;;;;5131959;27;20345;-75
2023/04/14 02:14:23;;;;;;;11.38;5.32;;;4.90;99.90;;;;;;5132744;27;20019;-74
2023/04/14 02:16:52;;;;;;;12.32;5.30;;;4.90;99.90;;;;;;5132371;27;20015;-74
2023/04/14 02:19:19;;;;;;;8.85;4.65;;;4.90;99.90;;;;;;5132220;27;20063;-74
2023/04/14 02:21:48;;;;;;;8.95;5.57;;;4.80;99.90;;;;;;5131087;27;20457;-76
2023/04/14 02:24:14;;;;;;;15.15;6.55;;;4.90;99.90;;;;;;5132464;27;20386;-73
2023/04/14 02:26:47;;;;;;;12.88;5.97;;;5.00;99.90;;;;;;5132320;27;20102;-73
2023/04/14 02:29:15;;;;;;;11.63;6.72;;;5.00;99.90;;;;;;5132094;27;20084;-73
2023/04/14 02:31:51;;;;;;;16.88;11.25;;;5.00;99.90;;;;;;5132101;27;20027;-73
2023/04/14 02:34:24;;;;;;;15.95;8.90;;;5.00;99.90;;;;;;5132233;27;20045;-73
2023/04/14 02:36:56;;;;;;;13.45;9.55;;;4.90;99.90;;;;;;5131216;27;20106;-74
2023/04/14 02:39:37;;;;;;;13.85;7.50;;;4.90;99.90;;;;;;5096632;27;20035;-74
2023/04/14 02:42:12;;;;;;;10.50;6.32;;;4.80;99.90;;;;;;5112956;27;20455;-74
2023/04/14 02:44:55;;;;;;;13.73;6.88;;;4.70;99.90;;;;;;5132111;27;20023;-74
2023/04/14 02:47:26;;;;;;;10.93;5.70;;;4.70;99.90;;;;;;5132121;27;20095;-74
2023/04/14 02:49:55;;;;;;;9.80;5.25;;;4.60;99.90;;;;;;5131914;27;20109;-74
2023/04/14 02:52:25;;;;;;;10.40;4.75;;;4.60;99.90;;;;;;5132063;27;20103;-73
2023/04/14 02:54:52;;;;;;;12.25;5.25;;;4.60;99.90;;;;;;5113515;27;20517;-74
2023/04/14 02:57:19;;;;;;;9.45;5.00;;;4.60;99.90;;;;;;5132385;27;20030;-73
2023/04/14 02:59:46;;;;;;;8.02;4.30;;;4.50;99.90;;;;;;5131701;27;20030;-76
2023/04/14 03:02:12;;;;;;;10.65;4.90;;;4.60;99.90;;;;;;5112931;27;20027;-72
2023/04/14 03:04:39;;;;;;;7.10;4.65;;;4.60;99.90;;;;;;5131771;27;20422;-72
2023/04/14 03:07:08;;;;;;;7.68;4.53;;;4.60;99.90;;;;;;5131043;27;20044;-73
2023/04/14 03:09:35;;;;;;;10.43;4.40;;;4.50;99.90;;;;;;5131395;27;20034;-73
2023/04/14 03:12:03;;;;;;;8.48;4.40;;;4.50;99.90;;;;;;5130937;28;20058;-72
2023/04/14 03:14:30;;;;;;;11.52;4.18;;;4.60;99.90;;;;;;5131304;28;20027;-73
2023/04/14 03:16:56;;;;;;;10.80;4.47;;;4.60;99.90;;;;;;5130725;28;20473;-73
2023/04/14 03:19:23;;;;;;;7.30;4.30;;;4.60;99.90;;;;;;5131313;28;20023;-73
2023/04/14 03:21:54;;;;;;;8.60;3.97;;;4.50;99.90;;;;;;5131201;28;20428;-75
2023/04/14 03:24:23;;;;;;;7.70;4.15;;;4.50;99.90;;;;;;5131635;28;20127;-73
2023/04/14 03:27:00;;;;;;;11.43;5.07;;;4.40;99.90;;;;;;5131002;28;20444;-76
2023/04/14 03:29:31;;;;;;;9.13;4.90;;;4.40;99.90;;;;;;5131164;28;20106;-74
2023/04/14 03:32:00;;;;;;;7.88;4.00;;;4.30;99.90;;;;;;5131250;27;20448;-74
2023/04/14 03:34:30;;;;;;;8.98;4.45;;;4.30;99.90;;;;;;5135408;27;20026;-74
2023/04/14 03:36:58;;;;;;;10.52;4.15;;;4.30;99.90;;;;;;5134481;27;20357;-75
2023/04/14 03:39:30;;;;;;;11.88;4.60;;;4.30;99.90;;;;;;5135706;27;20447;-74
2023/04/14 03:41:56;;;;;;;;;;;4.30;99.90;;;;;;5134889;27;20049;-74
2023/04/14 03:44:26;;;;;;;8.00;4.05;;;4.30;99.90;;;;;;5135429;27;19903;-74
2023/04/14 03:46:53;;;;;;;9.30;4.80;;;4.30;99.90;;;;;;5134982;27;20027;-75
2023/04/14 03:49:22;;;;;;;11.60;4.57;;;4.30;99.90;;;;;;5135510;27;20328;-74
2023/04/14 03:51:52;;;;;;;11.48;4.45;;;4.20;99.90;;;;;;5135361;27;20440;-74
2023/04/14 03:54:22;;;;;;;12.65;5.43;;;4.20;99.90;;;;;;5116705;27;20051;-74
2023/04/14 03:56:50;;;;;;;8.70;4.53;;;4.10;99.90;;;;;;5135260;27;20031;-74
2023/04/14 03:59:19;;;;;;;6.43;3.83;;;4.20;99.90;;;;;;5135056;27;20129;-74
2023/04/14 04:01:46;;;;;;;5.82;4.07;;;4.20;99.90;;;;;;5134966;27;20386;-74
2023/04/14 04:04:12;;;;;;;8.52;4.60;;;4.20;99.90;;;;;;5115978;27;20030;-74
2023/04/14 04:06:39;;;;;;;10.73;4.00;;;4.20;99.90;;;;;;5134699;27;20502;-74
2023/04/14 04:09:06;;;;;;;11.88;4.40;;;4.20;99.90;;;;;;5134264;27;20027;-74
2023/04/14 04:11:34;;;;;;;6.68;3.60;;;4.20;99.90;;;;;;5134846;27;20106;-74
2023/04/14 04:14:03;;;;;;;7.03;4.07;;;4.20;99.90;;;;;;5134477;27;20436;-74
2023/04/14 04:16:29;;;;;;;6.43;4.15;;;4.20;99.90;;;;;;5134810;27;20125;-74
2023/04/14 04:18:56;;;;;;;10.77;4.55;;;4.30;99.90;;;;;;5134258;27;20110;-75
2023/04/14 04:21:26;;;;;;;8.32;4.35;;;4.30;99.90;;;;;;5134764;27;20020;-73
2023/04/14 04:23:54;;;;;;;9.25;4.50;;;4.30;99.90;;;;;;5134507;27;20047;-76
2023/04/14 04:26:23;;;;;;;8.98;5.15;;;4.30;99.90;;;;;;5134720;27;20375;-73
2023/04/14 04:28:49;;;;;;;12.20;5.20;;;4.20;99.90;;;;;;5134690;27;20031;-73
2023/04/14 04:31:16;;;;;;;6.90;4.75;;;4.10;99.90;;;;;;5133896;27;20042;-73
2023/04/14 04:33:44;;;;;;;9.27;5.15;;;4.00;99.90;;;;;;5134529;27;20110;-73
2023/04/14 04:36:11;;;;;;;5.75;4.07;;;3.90;99.90;;;;;;5133934;27;20023;-73
2023/04/14 04:38:37;;;;;;;10.30;4.75;;;3.90;99.90;;;;;;5134197;27;20361;-74
2023/04/14 04:41:02;;;;;;;8.68;4.15;;;3.80;99.90;;;;;;5134249;27;20030;-74
2023/04/14 04:43:28;;;;;;;9.88;4.30;;;3.80;99.90;;;;;;5133539;27;20031;-74
2023/04/14 04:45:57;;;;;;;8.15;4.03;;;3.80;99.90;;;;;;5133643;27;20027;-77
2023/04/14 04:48:23;;;;;;;10.27;4.85;;;3.90;99.90;;;;;;5115830;27;20037;-74
2023/04/14 04:50:49;;;;;;;6.82;3.95;;;3.80;99.90;;;;;;5134035;27;20024;-73
2023/04/14 04:53:15;;;;;;;5.03;3.85;;;3.90;99.90;;;;;;5133827;27;20027;-74
2023/04/14 04:55:41;;;;;;;8.25;4.50;;;4.00;99.90;;;;;;5135004;27;20027;-74
2023/04/14 04:58:07;;;;;;;9.80;4.45;;;4.00;99.90;;;;;;5134572;27;20036;-74
2023/04/14 05:00:33;;;;;;;7.35;4.63;;;3.90;99.90;;;;;;5134851;27;20019;-74
2023/04/14 05:02:59;;;;;;;8.80;4.20;;;3.90;99.90;;;;;;5134334;27;20046;-74
2023/04/14 05:05:26;;;;;;;8.02;4.10;;;3.90;99.90;;;;;;5135613;27;20019;-74
2023/04/14 05:07:51;;;;;;;7.28;4.00;;;3.90;99.90;;;;;;5135634;27;20054;-74
2023/04/14 05:10:17;;;;;;;6.97;4.00;;;3.90;99.90;;;;;;5133783;27;20441;-74
2023/04/14 05:12:43;;;;;;;9.55;4.25;;;3.90;99.90;;;;;;5115462;27;20023;-74
2023/04/14 05:15:09;;;;;;;11.27;3.88;;;3.80;99.90;;;;;;5133661;27;20059;-74
2023/04/14 05:17:36;;;;;;;8.48;3.88;;;3.80;99.90;;;;;;5133678;27;20062;-74
2023/04/14 05:20:04;;;;;;;8.18;3.90;;;3.80;99.90;;;;;;5133115;27;20340;-75
2023/04/14 05:22:31;;;;;;;10.20;4.60;;;3.70;99.90;;;;;;5133705;27;20039;-74
2023/04/14 05:24:56;;;;;;;7.60;4.22;;;3.60;99.90;;;;;;5133292;27;20072;-77
2023/04/14 05:27:22;;;;;;;7.65;4.20;;;3.60;99.90;;;;;;5133738;27;20118;-72
2023/04/14 05:29:48;;;;;;;8.75;4.60;;;3.60;99.90;;;;;;5133270;27;20428;-73
2023/04/14 05:32:14;;;;;;;11.82;5.53;;;3.60;99.90;;;;;;5132768;27;20060;-73
2023/04/14 05:34:40;;;;;;;8.88;5.10;;;3.60;99.90;;;;;;5133374;27;20032;-73
2023/04/14 05:37:06;;;;;;;9.82;4.85;;;3.60;99.90;;;;;;5132632;27;20421;-73
2023/04/14 05:39:32;;;;;;;11.98;5.47;;;3.60;99.90;;;;;;5133359;27;20095;-74
2023/04/14 05:42:00;;;;;;;9.43;4.90;;;3.50;99.90;;;;;;5132567;27;20483;-76
2023/04/14 05:44:26;;;;;;;11.02;5.45;;;3.40;99.90;;;;;;5133083;27;20020;-73
2023/04/14 05:46:52;;;;;;;14.13;5.20;;;3.40;99.90;;;;;;5114441;27;20345;-73
2023/04/14 05:49:17;;;;;;;11.05;5.22;;;3.40;99.90;;;;;;5132294;27;20582;-73
2023/04/14 05:51:43;;;;;;;11.25;4.90;;;3.30;99.90;;;;;;5133024;27;20056;-73
2023/04/14 05:54:09;;;;;;;15.70;5.00;;;3.30;99.90;;;;;;5132573;27;20027;-74
2023/04/14 05:56:35;;;;;;;7.70;4.75;;;3.30;99.90;;;;;;5132211;27;20035;-74
2023/04/14 05:59:00;;;;;;;11.10;5.40;;;3.20;99.90;;;;;;5132214;27;20444;-76
2023/04/14 06:01:26;;;;;;;6.72;4.53;;;3.20;99.90;;;;;;5132985;27;20098;-74
2023/04/14 06:03:52;;;;;;;10.35;4.85;;;3.30;99.90;;;;;;5132638;27;20115;-73
2023/04/14 06:06:20;;;;;;;13.25;5.47;;;3.30;99.90;;;;;;5132066;27;20042;-74
2023/04/14 06:08:46;;;;;;;10.32;5.65;;;3.30;99.90;;;;;;5132784;27;20094;-74
2023/04/14 06:11:13;;;;;;;11.57;5.72;;;3.40;99.90;;;;;;5113515;27;20027;-74
2023/04/14 06:13:38;;;;;;;9.90;5.63;;;3.50;99.90;;;;;;5114186;27;20031;-74
2023/04/14 06:16:04;;;;;;;10.38;5.20;;;3.70;99.90;;;;;;5131980;27;20191;-74
2023/04/14 06:18:30;;;;;;;9.40;6.00;;;3.80;99.90;;;;;;5132316;27;20026;-74
2023/04/14 06:20:56;;;;;;;10.38;5.32;;;4.00;99.90;;;;;;5132477;27;20372;-74
2023/04/14 06:23:23;;;;;;;10.65;6.00;;;4.20;99.90;;;;;;5131871;27;20871;-74
2023/04/14 06:25:51;;;;;;;10.43;4.78;;;4.40;99.90;;;;;;5132137;27;20400;-73
2023/04/14 06:28:17;;;;;;;9.23;4.95;;;4.60;99.90;;;;;;5132046;27;20015;-74
2023/04/14 06:30:43;;;;;;;6.38;4.63;;;4.80;99.90;;;;;;5132099;27;20023;-73
2023/04/14 06:33:09;;;;;;;8.35;4.32;;;4.90;99.90;;;;;;5132087;27;20071;-73
2023/04/14 06:35:35;;;;;;;7.72;4.30;;;4.90;99.90;;;;;;5132092;27;20035;-73
2023/04/14 06:38:01;;;;;;;7.88;4.43;;;5.00;99.90;;;;;;5132052;27;20034;-75
2023/04/14 06:40:27;;;;;;;6.78;3.92;;;5.20;99.90;;;;;;5131557;27;20026;-73
2023/04/14 06:42:52;;;;;;;10.32;4.70;;;5.40;99.90;;;;;;5131961;27;20027;-73
2023/04/14 06:45:18;;;;;;;9.25;4.65;;;5.50;99.90;;;;;;5131504;27;20051;-74
2023/04/14 06:47:44;;;;;;;7.07;4.40;;;5.70;99.90;;;;;;5113540;27;20115;-73
2023/04/14 06:50:11;;;;;;;9.27;4.50;;;5.80;99.90;;;;;;5131111;27;20031;-74
2023/04/14 06:52:36;;;;;;;7.65;4.25;;;5.90;99.90;;;;;;5132074;27;20080;-74
2023/04/14 06:55:02;;;;;;;9.57;4.68;;;6.00;99.90;;;;;;5131887;27;20035;-76
2023/04/14 06:57:28;;;;;;;7.88;4.50;;;6.10;99.90;;;;;;5131785;27;20052;-73
2023/04/14 06:59:54;;;;;;;9.57;4.60;;;6.20;99.90;;;;;;5132121;27;20027;-74
2023/04/14 07:02:19;;;;;;;11.38;4.78;;;6.50;99.90;;;;;;5131249;27;20057;-74
2023/04/14 07:04:45;;;;;;;8.48;4.93;;;6.70;99.90;;;;;;5131836;27;20035;-74
2023/04/14 07:07:13;;;;;;;10.40;5.43;;;6.80;99.90;;;;;;5131425;27;20020;-73
2023/04/14 07:09:41;;;;;;;11.65;5.15;;;6.90;99.90;;;;;;5131558;27;20075;-74
2023/04/14 07:12:14;;;;;;;9.02;4.60;;;6.90;99.90;;;;;;5112719;28;20091;-75
2023/04/14 07:14:40;;;;;;;7.13;4.22;;;7.00;99.90;;;;;;5131687;28;20460;-74
2023/04/14 07:17:06;;;;;;;9.00;4.32;;;7.10;99.90;;;;;;5131274;28;20030;-77
2023/04/14 07:19:32;;;;;;;9.43;4.22;;;7.20;99.90;;;;;;5131181;28;20038;-74
2023/04/14 07:21:57;;;;;;;6.47;4.00;;;7.30;99.90;;;;;;5113371;28;20027;-74
2023/04/14 07:24:23;;;;;;;5.57;3.40;;;7.40;99.90;;;;;;5130909;27;20035;-73
2023/04/14 07:26:49;;;;;;;11.38;4.10;;;7.60;99.90;;;;;;5131933;28;20028;-73
2023/04/14 07:29:15;;;;;;;7.03;3.75;;;7.70;99.90;;;;;;5131099;28;20023;-73
2023/04/14 07:31:41;;;;;;;9.20;3.90;;;7.80;99.90;;;;;;5131618;28;20107;-73
2023/04/14 07:34:07;;;;;;;8.13;3.72;;;8.00;99.90;;;;;;5130923;28;20110;-77
2023/04/14 07:36:33;;;;;;;8.05;3.20;;;8.20;99.90;;;;;;5131168;28;20364;-74
2023/04/14 07:38:59;;;;;;;7.28;3.35;;;8.30;99.90;;;;;;5131469;28;20024;-72
2023/04/14 07:41:27;;;;;;;4.18;3.15;;;8.30;99.90;;;;;;5130910;28;20027;-73
2023/04/14 07:43:56;;;;;;;14.70;4.40;;;8.50;99.90;;;;;;5131485;28;20447;-74
2023/04/14 07:46:22;;;;;;;10.38;3.88;;;8.60;99.90;;;;;;5130718;28;20412;-74
2023/04/14 07:48:48;;;;;;;5.78;3.08;;;8.60;99.90;;;;;;5131186;28;20061;-73
2023/04/14 07:51:13;;;;;;;6.78;2.60;;;8.50;99.90;;;;;;5130623;28;20020;-74
2023/04/14 07:53:42;;;;;;;12.10;3.30;;;8.50;99.90;;;;;;5131209;28;20031;-73
2023/04/14 07:56:08;;;;;;;6.78;3.08;;;8.50;99.90;;;;;;5130218;28;20023;-75
2023/04/14 07:58:34;;;;;;;8.30;3.03;;;8.40;99.90;;;;;;5131510;28;20126;-74
2023/04/14 08:01:00;;;;;;;9.82;3.22;;;8.30;99.90;;;;;;5130852;28;20054;-73
2023/04/14 08:03:25;;;;;;;6.88;2.45;;;8.20;99.90;;;;;;5130666;28;20046;-74
2023/04/14 08:05:51;;;;;;;11.52;3.15;;;8.10;99.90;;;;;;5112623;28;20034;-74
2023/04/14 08:08:17;;;;;;;7.55;2.75;;;8.10;99.90;;;;;;5135776;27;20118;-74
2023/04/14 08:10:42;;;;;;;6.35;2.63;;;8.00;99.90;;;;;;5140008;27;20452;-74
2023/04/14 08:13:09;;;;;;;7.32;2.88;;;8.00;99.90;;;;;;5140594;27;20101;-76
2023/04/14 08:15:34;;;;;;;6.45;2.38;;;8.10;99.90;;;;;;5141538;27;20094;-73
2023/04/14 08:18:01;;;;;;;9.02;2.28;;;8.10;99.90;;;;;;5136469;27;20047;-74
2023/04/14 08:20:26;;;;;;;6.97;2.67;;;8.30;99.90;;;;;;5133973;27;20027;-73
2023/04/14 08:22:52;;;;;;;6.85;1.88;;;8.50;99.90;;;;;;5134927;27;20513;-72
2023/04/14 08:25:18;;;;;;;6.50;2.00;;;8.50;99.90;;;;;;5133631;27;20111;-74
2023/04/14 08:27:44;;;;;;;8.88;2.60;;;8.70;99.90;;;;;;5134329;27;20031;-74
2023/04/14 08:30:10;;;;;;;8.23;2.33;;;8.90;99.90;;;;;;5134586;27;20023;-76
2023/04/14 08:32:36;;;;;;;10.80;2.30;;;9.10;99.90;;;;;;5116143;27;20045;-72
2023/04/14 08:35:02;;;;;;;14.88;3.60;;;9.20;99.90;;;;;;5134452;27;20114;-73
2023/04/14 08:37:27;;;;;;;23.13;3.95;;;9.40;99.90;;;;;;5133847;27;20102;-74
2023/04/14 08:39:53;;;;;;;11.38;2.47;;;9.60;99.90;;;;;;5133854;27;20027;-73
2023/04/14 08:42:20;;;;;;;5.07;1.50;;;9.70;99.90;;;;;;5133254;27;20038;-74
2023/04/14 08:44:46;;;;;;;6.68;1.50;;;9.70;99.90;;;;;;5134010;27;20096;-74
2023/04/14 08:47:13;;;;;;;11.63;1.65;;;9.80;99.90;;;;;;5133570;27;20023;-78
2023/04/14 08:49:51;;;;;;;7.88;1.77;;;9.90;99.90;;;;;;5133662;27;20058;-75
2023/04/14 08:52:22;;;;;;;5.75;1.58;;;10.00;99.90;;;;;;5133271;27;20034;-75
2023/04/14 08:54:52;;;;;;;6.45;1.45;;;10.00;99.90;;;;;;5134041;27;20023;-75
2023/04/14 08:57:19;;;;;;;7.63;1.77;;;10.10;99.90;;;;;;5133369;27;20111;-75
2023/04/14 08:59:46;;;;;;;5.40;1.60;;;10.10;99.90;;;;;;5134131;27;20332;-75
2023/04/14 09:02:12;;;;;;;3.75;1.65;;;10.10;99.90;;;;;;5114467;27;20035;-78
2023/04/14 09:04:39;;;;;;;8.98;1.92;;;10.20;99.90;;;;;;5133509;27;20019;-76
2023/04/14 09:07:05;;;;;;;8.48;1.90;;;10.10;99.90;;;;;;5133214;27;20414;-76
2023/04/14 09:09:31;;;;;;;7.05;1.60;;;10.20;99.90;;;;;;5127711;27;20204;-76
2023/04/14 09:11:57;;;;;;;6.80;1.90;;;10.40;99.90;;;;;;5138656;27;20377;-75
2023/04/14 09:14:23;;;;;;;8.27;1.95;;;10.60;99.90;;;;;;5132339;27;20050;-76
2023/04/14 09:16:52;;;;;;;6.93;2.03;;;10.90;99.90;;;;;;5132272;27;20325;-76
2023/04/14 09:19:20;;;;;;;5.63;1.48;;;10.90;99.90;;;;;;5132197;27;20087;-76
2023/04/14 09:21:46;;;;;;;7.28;1.70;;;10.80;99.90;;;;;;5132981;27;20023;-76
2023/04/14 09:24:11;;;;;;;5.05;1.63;;;10.80;99.90;;;;;;5132679;27;20084;-76
2023/04/14 09:26:37;;;;;;;4.05;1.38;;;10.80;99.90;;;;;;5132626;27;20035;-76
2023/04/14 09:29:03;;;;;;;8.80;1.73;;;10.90;99.90;;;;;;5132341;27;20098;-76
2023/04/14 09:31:29;;;;;;;7.00;1.55;;;10.90;99.90;;;;;;5130974;27;20019;-76
2023/04/14 09:33:56;;;;;;;6.35;1.40;;;10.90;99.90;;;;;;5096994;27;20023;-79
2023/04/14 09:36:26;;;;;;;5.60;1.75;;;10.80;99.90;;;;;;5131898;27;20019;-76
2023/04/14 09:38:52;;;;;;;6.55;1.35;;;10.80;99.90;;;;;;5153082;27;20038;-75
2023/04/14 09:41:21;;;;;;;8.10;1.42;;;10.90;99.90;;;;;;5152025;27;20023;-75
2023/04/14 09:43:47;;;;;;;7.40;1.45;;;10.90;99.90;;;;;;5153105;27;20034;-76
2023/04/14 09:46:14;;;;;;;6.85;1.30;;;11.00;99.90;;;;;;5152285;27;20054;-78
2023/04/14 09:48:56;;;;;;;4.30;1.30;;;11.00;99.90;;;;;;5152836;27;20041;-76
2023/04/14 09:51:26;;;;;;;6.63;1.30;;;11.00;99.90;;;;;;5134359;27;20033;-76
2023/04/14 09:53:52;;;;;;;7.65;1.40;;;10.80;99.90;;;;;;5152887;27;20034;-76
2023/04/14 09:56:17;;;;;;;6.40;1.88;;;10.90;99.90;;;;;;5152178;27;20203;-75
2023/04/14 09:58:45;;;;;;;6.45;1.63;;;10.90;99.90;;;;;;5152793;27;20355;-76
2023/04/14 10:01:15;;;;;;;2.92;1.10;;;11.00;99.90;;;;;;5133868;27;20026;-76
2023/04/14 10:03:50;;;;;;;2.78;1.02;;;11.00;99.90;;;;;;5152673;27;20034;-75
2023/04/14 10:06:18;;;;;;;4.07;1.30;;;10.80;99.90;;;;;;5151905;27;20022;-77
2023/04/14 10:08:48;;;;;;;8.57;1.63;;;10.70;99.90;;;;;;5152753;27;20031;-75
2023/04/14 10:11:23;;;;;;;5.43;1.13;;;10.70;99.90;;;;;;5152103;27;20027;-77
2023/04/14 10:13:59;;;;;;;5.70;1.67;;;10.60;99.90;;;;;;5152753;27;20030;-75
2023/04/14 10:16:26;;;;;;;4.45;1.52;;;10.70;99.90;;;;;;5151473;27;20109;-75
2023/04/14 10:18:53;;;;;;;4.05;1.30;;;10.80;99.90;;;;;;5133885;27;20033;-76
2023/04/14 10:21:23;;;;;;;3.22;1.00;;;11.00;99.90;;;;;;5148475;27;20120;-75
2023/04/14 10:23:50;;;;;;;5.35;1.27;;;11.00;99.90;;;;;;5113285;27;20051;-75
2023/04/14 10:26:17;;;;;;;8.00;1.40;;;11.20;99.90;;;;;;5131597;27;20039;-78
2023/04/14 10:28:49;;;;;;;9.77;1.88;;;11.20;99.90;;;;;;5131732;27;20061;-75
2023/04/14 10:31:28;;;;;;;4.63;1.50;;;11.20;99.90;;;;;;5131440;27;20031;-78
2023/04/14 10:33:54;;;;;;;4.95;1.50;;;11.00;99.90;;;;;;5131791;27;20042;-74
2023/04/14 10:36:24;;;;;;;7.93;1.52;;;10.90;99.90;;;;;;5130955;27;20020;-76
2023/04/14 10:39:04;;;;;;;4.38;1.70;;;11.00;99.90;;;;;;5133364;27;20475;-76
2023/04/14 10:41:48;;;;;;;7.30;1.65;;;11.10;99.90;;;;;;5130867;27;20019;-76
2023/04/14 10:44:31;;;;;;;5.47;1.40;;;11.20;99.90;;;;;;5131502;27;20494;-76
2023/04/14 10:47:00;;;;;;;4.13;1.17;;;11.30;99.90;;;;;;5113059;27;20080;-76
2023/04/14 10:49:34;;;;;;;3.75;1.10;;;11.20;99.90;;;;;;5131040;27;20019;-75
2023/04/14 10:52:04;;;;;;;7.95;1.42;;;11.00;99.90;;;;;;5131424;27;20034;-76
2023/04/14 10:54:52;;;;;;;3.55;1.20;;;10.90;99.90;;;;;;5113079;27;20091;-76
2023/04/14 10:57:25;;;;;;;3.17;1.45;;;11.00;99.90;;;;;;5131487;27;20102;-76
2023/04/14 10:59:57;;;;;;;;;;;11.10;99.90;;;;;;5131552;27;20098;-75
2023/04/14 11:02:25;;;;;;;3.95;1.50;;;11.20;99.90;;;;;;5131295;27;19914;-75
2023/04/14 11:05:04;;;;;;;6.45;1.50;;;11.40;99.90;;;;;;5131681;27;20065;-75
2023/04/14 11:07:36;;;;;;;4.70;1.02;;;11.50;99.90;;;;;;5131040;27;20027;-76
2023/04/14 11:10:20;;;;;;;4.13;1.75;;;11.40;99.90;;;;;;5131333;27;20022;-76
2023/04/14 11:13:07;;;;;;;4.38;1.02;;;11.20;99.90;;;;;;5131036;27;20101;-76
2023/04/14 11:16:00;;;;;;;5.47;1.60;;;11.10;99.90;;;;;;5130277;27;20046;-76
2023/04/14 11:18:28;;;;;;;13.80;2.85;;;11.20;99.90;;;;;;5136879;27;20471;-76
2023/04/14 11:21:13;;;;;;;6.05;1.70;;;11.50;99.90;;;;;;5151994;27;20474;-76
2023/04/14 11:23:40;;;;;;;3.15;1.25;;;11.60;99.90;;;;;;5150708;27;20055;-75
2023/04/14 11:26:10;;;;;;;5.03;1.80;;;11.70;99.90;;;;;;5151915;27;20525;-75
2023/04/14 11:28:45;;;;;;;3.72;1.73;;;11.80;99.90;;;;;;5151037;27;20199;-76
2023/04/14 11:31:12;;;;;;;3.10;1.40;;;11.90;99.90;;;;;;5151490;27;20019;-75
2023/04/14 11:33:40;;;;;;;5.68;1.77;;;12.00;99.90;;;;;;5132581;27;20398;-77
2023/04/14 11:36:08;;;;;;;2.97;1.23;;;12.10;99.90;;;;;;5151683;27;20042;-76
2023/04/14 11:38:39;;;;;;;3.95;1.60;;;12.20;99.90;;;;;;5151363;27;20022;-76
2023/04/14 11:41:04;;;;;;;6.97;1.65;;;12.10;99.90;;;;;;5152071;27;20506;-76
2023/04/14 11:43:30;;;;;;;3.60;1.58;;;12.10;99.90;;;;;;5151314;27;20105;-76
2023/04/14 11:45:57;;;;;;;5.82;1.70;;;12.10;99.90;;;;;;5133784;27;20031;-76
2023/04/14 11:48:23;;;;;;;6.47;1.70;;;12.10;99.90;;;;;;5151574;27;20039;-76
2023/04/14 11:50:49;;;;;;;6.05;1.60;;;12.00;99.90;;;;;;5152048;27;20031;-76
2023/04/14 11:53:16;;;;;;;3.40;1.67;;;11.90;99.90;;;;;;5153072;27;20214;-79
2023/04/14 11:55:43;;;;;;;4.55;1.83;;;11.80;99.90;;;;;;5156168;27;20080;-76
2023/04/14 11:58:09;;;;;;;4.95;1.63;;;11.80;99.90;;;;;;5155136;27;20105;-75
2023/04/14 12:00:35;;;;;;;8.38;1.60;;;11.70;99.90;;;;;;5152420;27;20031;-75
2023/04/14 12:03:03;;;;;;;3.17;1.58;;;11.90;99.90;;;;;;5134281;27;20027;-74
2023/04/14 12:05:30;;;;;;;7.30;1.88;;;12.00;99.90;;;;;;5114992;27;20035;-76
2023/04/14 12:08:03;;;;;;;4.18;1.50;;;12.00;99.90;;;;;;5134228;27;20066;-76
2023/04/14 12:10:30;;;;;;;5.38;1.52;;;12.10;99.90;;;;;;5134309;27;20039;-76
2023/04/14 12:13:06;;;;;;;7.57;1.45;;;12.20;99.90;;;;;;5136141;27;20027;-76
2023/04/14 12:15:37;;;;;;;5.22;1.30;;;12.10;99.90;;;;;;5154423;27;20030;-76
2023/04/14 12:18:12;;;;;;;3.97;1.60;;;11.80;99.90;;;;;;5154906;27;20034;-76
2023/04/14 12:20:54;;;;;;;5.25;1.70;;;11.70;99.90;;;;;;5154347;27;20019;-76
2023/04/14 12:23:20;;;;;;;3.55;1.17;;;11.80;99.90;;;;;;5154128;27;20190;-76
2023/04/14 12:25:50;;;;;;;2.47;1.05;;;12.00;99.90;;;;;;5154766;27;20451;-74
2023/04/14 12:28:29;;;;;;;3.50;1.23;;;12.00;99.90;;;;;;5154328;27;20116;-78
2023/04/14 12:31:02;;;;;;;4.10;1.13;;;12.20;99.90;;;;;;5145808;27;20098;-76
2023/04/14 12:33:30;;;;;;;3.95;1.13;;;12.10;99.90;;;;;;5139366;27;20059;-76
2023/04/14 12:36:12;;;;;;;4.13;1.27;;;12.10;99.90;;;;;;5144275;27;20030;-76
2023/04/14 12:38:38;;;;;;;7.40;1.60;;;12.20;99.90;;;;;;5142991;27;20027;-76
2023/04/14 12:41:04;;;;;;;2.75;1.38;;;12.20;99.90;;;;;;5139204;27;20061;-74
2023/04/14 12:43:31;;;;;;;3.90;1.10;;;12.30;99.90;;;;;;5135014;27;20095;-76
2023/04/14 12:45:57;;;;;;;5.22;1.27;;;12.30;99.90;;;;;;5141960;27;20027;-76
2023/04/14 12:48:43;;;;;;;3.67;1.40;;;12.40;99.90;;;;;;5142603;27;20027;-76
2023/04/14 12:51:14;;;;;;;3.53;1.20;;;12.40;99.90;;;;;;5141775;27;20043;-76
2023/04/14 12:53:41;;;;;;;6.93;1.80;;;12.30;99.90;;;;;;5131369;27;20049;-76
2023/04/14 12:56:15;;;;;;;7.60;1.88;;;12.30;99.90;;;;;;5136117;27;20339;-75
2023/04/14 12:58:45;;;;;;;5.47;1.35;;;12.50;99.90;;;;;;5150879;27;20023;-76